Time;durP1;ratioP1;P1;durP2;ratioP2;P2;SDS_P1;SDS_P2;PMS_P1;PMS_P2;Temp;Humidity;BMP_temperature;BMP_pressure;BME280_temperature;BME280_humidity;BME280_pressure;Samples;Min_cycle;Max_cycle;Signal;HPM_P1;HPM_P2
2023/08/14 00:00:31;;;;;;;26.33;23.98;;;14.00;99.90;;;;;;4934483;28;20042;-77
2023/08/14 00:02:57;;;;;;;25.58;23.20;;;14.10;99.90;;;;;;4955698;28;20049;-77
2023/08/14 00:05:23;;;;;;;37.92;34.28;;;14.00;99.90;;;;;;4955625;28;20510;-78
2023/08/14 00:07:49;;;;;;;33.88;30.52;;;14.00;99.90;;;;;;4953283;28;20061;-78
2023/08/14 00:10:14;;;;;;;42.83;35.00;;;14.10;99.90;;;;;;4933102;29;20031;-78
2023/08/14 00:12:40;;;;;;;22.38;20.42;;;14.10;99.90;;;;;;4931059;28;20093;-78
2023/08/14 00:15:07;;;;;;;24.85;22.35;;;14.10;99.90;;;;;;4939190;28;20122;-77
2023/08/14 00:17:33;;;;;;;29.95;26.90;;;14.10;99.90;;;;;;4939900;28;20477;-77
2023/08/14 00:19:59;;;;;;;27.88;25.10;;;14.10;99.90;;;;;;4957532;28;20101;-78
2023/08/14 00:22:25;;;;;;;29.02;26.05;;;14.00;99.90;;;;;;4939478;28;20070;-78
2023/08/14 00:24:50;;;;;;;22.50;20.38;;;14.00;99.90;;;;;;4939742;28;20035;-77
2023/08/14 00:27:17;;;;;;;40.58;31.73;;;14.00;99.90;;;;;;4951175;29;20044;-78
2023/08/14 00:29:42;;;;;;;24.65;22.17;;;14.00;99.90;;;;;;4951163;28;20582;-78
2023/08/14 00:32:08;;;;;;;21.75;19.83;;;14.00;99.90;;;;;;4939843;28;20045;-78
2023/08/14 00:34:36;;;;;;;21.95;20.10;;;13.90;99.90;;;;;;4939548;28;20094;-77
2023/08/14 00:37:02;;;;;;;31.63;27.73;;;13.90;99.90;;;;;;4939022;28;20555;-78
2023/08/14 00:39:28;;;;;;;27.67;24.98;;;13.90;99.90;;;;;;4979243;28;20114;-78
2023/08/14 00:41:53;;;;;;;31.92;28.55;;;13.90;99.90;;;;;;4955167;28;20035;-78
2023/08/14 00:44:19;;;;;;;25.98;23.48;;;13.90;99.90;;;;;;4955388;28;20046;-79
2023/08/14 00:46:45;;;;;;;26.90;24.45;;;13.90;99.90;;;;;;4955484;28;20042;-78
2023/08/14 00:49:11;;;;;;;24.67;22.45;;;14.00;99.90;;;;;;4954670;28;20054;-78
2023/08/14 00:51:38;;;;;;;25.08;22.65;;;13.90;99.90;;;;;;4959037;28;20050;-78
2023/08/14 00:54:04;;;;;;;25.85;23.42;;;13.90;99.90;;;;;;4958476;28;20038;-79
2023/08/14 00:56:31;;;;;;;33.97;30.30;;;13.90;99.90;;;;;;4942454;28;20046;-79
2023/08/14 00:58:57;;;;;;;20.00;18.20;;;13.80;99.90;;;;;;4942035;28;20118;-78
2023/08/14 01:01:23;;;;;;;28.95;26.02;;;13.80;99.90;;;;;;4958483;28;20115;-78
2023/08/14 01:03:49;;;;;;;22.75;20.75;;;13.80;99.90;;;;;;4958068;28;20494;-77
2023/08/14 01:06:15;;;;;;;49.40;32.65;;;13.80;99.90;;;;;;4942466;28;20047;-78
2023/08/14 01:08:42;;;;;;;32.22;29.00;;;13.70;99.90;;;;;;4941147;28;20097;-77
2023/08/14 01:11:28;;;;;;;51.13;36.30;;;13.80;99.90;;;;;;4951410;28;20043;-78
2023/08/14 01:14:16;;;;;;;23.27;21.17;;;13.70;99.90;;;;;;4973867;28;20049;-79
2023/08/14 01:16:47;;;;;;;33.58;29.15;;;13.70;99.90;;;;;;4957409;28;20035;-78
2023/08/14 01:19:40;;;;;;;24.45;22.10;;;13.70;99.90;;;;;;4953923;28;20034;-77
2023/08/14 01:22:21;;;;;;;24.27;22.08;;;13.70;99.90;;;;;;4921071;29;20085;-78
2023/08/14 01:24:59;;;;;;;24.70;22.17;;;13.60;99.90;;;;;;4923276;29;20462;-78
2023/08/14 01:27:26;;;;;;;48.35;34.78;;;13.60;99.90;;;;;;4923297;29;20102;-78
2023/08/14 01:29:59;;;;;;;35.55;29.60;;;13.60;99.90;;;;;;4944504;28;20035;-77
2023/08/14 01:32:25;;;;;;;45.90;35.55;;;13.60;99.90;;;;;;4941963;28;20034;-78
2023/08/14 01:34:53;;;;;;;31.13;26.98;;;13.60;99.90;;;;;;4942280;28;20046;-78
2023/08/14 01:37:34;;;;;;;31.63;28.33;;;13.60;99.90;;;;;;4942468;28;20498;-77
2023/08/14 01:40:25;;;;;;;34.88;30.58;;;13.60;99.90;;;;;;4938925;29;20558;-77
2023/08/14 01:42:59;;;;;;;29.88;26.75;;;13.60;99.90;;;;;;4941325;28;20545;-79
2023/08/14 01:45:28;;;;;;;28.63;25.65;;;13.60;99.90;;;;;;4961161;28;20049;-78
2023/08/14 01:47:55;;;;;;;27.38;24.88;;;13.60;99.90;;;;;;4971383;28;20608;-78
2023/08/14 01:50:24;;;;;;;26.13;23.55;;;13.50;99.90;;;;;;4957849;28;20402;-78
2023/08/14 01:52:50;;;;;;;28.48;25.75;;;13.50;99.90;;;;;;4943046;28;20042;-78
2023/08/14 01:55:15;;;;;;;28.02;25.40;;;13.50;99.90;;;;;;4952582;28;20038;-78
2023/08/14 01:57:44;;;;;;;36.28;30.88;;;13.50;99.90;;;;;;4951541;28;20043;-78
2023/08/14 02:00:10;;;;;;;57.10;34.47;;;13.50;99.90;;;;;;4967654;28;20045;-78
2023/08/14 02:02:36;;;;;;;39.70;31.95;;;13.50;99.90;;;;;;4985388;28;20519;-78
2023/08/14 02:05:02;;;;;;;30.08;27.13;;;13.50;99.90;;;;;;4984845;28;20129;-78
2023/08/14 02:07:28;;;;;;;30.45;27.40;;;13.50;99.90;;;;;;4969805;28;20045;-78
2023/08/14 02:09:54;;;;;;;28.52;25.88;;;13.50;99.90;;;;;;4979081;28;20041;-78
2023/08/14 02:12:20;;;;;;;34.33;28.88;;;13.50;99.90;;;;;;4984600;28;20046;-78
2023/08/14 02:14:46;;;;;;;39.65;28.15;;;13.50;99.90;;;;;;4974592;28;20037;-78
2023/08/14 02:17:12;;;;;;;66.45;34.22;;;13.50;99.90;;;;;;4975452;28;20041;-78
2023/08/14 02:19:38;;;;;;;24.75;22.33;;;13.50;99.90;;;;;;4968241;28;20474;-78
2023/08/14 02:22:03;;;;;;;70.22;40.90;;;13.40;99.90;;;;;;4984329;28;20039;-78
2023/08/14 02:24:29;;;;;;;28.30;24.98;;;13.40;99.90;;;;;;4976822;28;20101;-78
2023/08/14 02:26:55;;;;;;;46.35;32.85;;;13.30;99.90;;;;;;4984842;28;20493;-78
2023/08/14 02:29:21;;;;;;;30.17;25.63;;;13.30;99.90;;;;;;4965782;28;20042;-78
2023/08/14 02:31:50;;;;;;;26.83;24.17;;;13.30;99.90;;;;;;4963663;28;20035;-78
2023/08/14 02:34:35;;;;;;;52.53;33.38;;;13.30;99.90;;;;;;4963331;28;20097;-78
2023/08/14 02:37:01;;;;;;;29.02;26.05;;;13.30;99.90;;;;;;4992904;28;20508;-78
2023/08/14 02:39:26;;;;;;;36.47;29.67;;;13.30;99.90;;;;;;4961834;28;20035;-78
2023/08/14 02:41:52;;;;;;;29.05;25.48;;;13.30;99.90;;;;;;4961709;28;20069;-78
2023/08/14 02:44:18;;;;;;;26.90;24.27;;;13.10;99.90;;;;;;4961375;28;20058;-78
2023/08/14 02:46:44;;;;;;;79.68;36.92;;;13.20;99.90;;;;;;4960403;28;20074;-78
2023/08/14 02:49:09;;;;;;;28.48;25.40;;;13.20;99.90;;;;;;4965714;28;20425;-78
2023/08/14 02:51:35;;;;;;;50.15;35.58;;;13.20;99.90;;;;;;4980413;28;20038;-78
2023/08/14 02:54:01;;;;;;;24.05;21.88;;;13.10;99.90;;;;;;4981561;28;20068;-78
2023/08/14 02:56:27;;;;;;;34.17;28.95;;;13.10;99.90;;;;;;4980725;28;20035;-78
2023/08/14 02:58:52;;;;;;;31.85;28.23;;;13.10;99.90;;;;;;4970556;28;20042;-78
2023/08/14 03:01:19;;;;;;;27.33;24.13;;;13.00;99.90;;;;;;4958659;28;20517;-78
2023/08/14 03:03:44;;;;;;;22.08;19.92;;;13.00;99.90;;;;;;4965079;28;20045;-78
2023/08/14 03:06:10;;;;;;;28.38;25.38;;;13.10;99.90;;;;;;4991889;28;20035;-78
2023/08/14 03:08:36;;;;;;;20.92;18.85;;;13.00;99.90;;;;;;4968408;28;20077;-78
2023/08/14 03:11:02;;;;;;;18.77;17.10;;;13.00;99.90;;;;;;4958731;28;20035;-78
2023/08/14 03:13:28;;;;;;;26.20;22.65;;;12.90;99.90;;;;;;4963591;28;20069;-78
2023/08/14 03:15:59;;;;;;;20.30;18.30;;;12.90;99.90;;;;;;4979068;28;20421;-78
2023/08/14 03:18:25;;;;;;;34.13;26.17;;;12.90;99.90;;;;;;4948847;28;20574;-78
2023/08/14 03:20:53;;;;;;;26.02;23.23;;;12.80;99.90;;;;;;4961024;28;20103;-78
2023/08/14 03:23:19;;;;;;;23.45;21.25;;;12.80;99.90;;;;;;4961243;28;20433;-78
2023/08/14 03:25:44;;;;;;;30.92;27.67;;;12.70;99.90;;;;;;4945256;28;20039;-78
2023/08/14 03:28:10;;;;;;;31.33;28.13;;;12.70;99.90;;;;;;4964305;28;20039;-78
2023/08/14 03:30:41;;;;;;;38.75;32.80;;;12.70;99.90;;;;;;4978273;28;20039;-78
2023/08/14 03:33:10;;;;;;;49.63;41.92;;;12.70;99.90;;;;;;4964387;28;20078;-78
2023/08/14 03:35:36;;;;;;;54.63;43.95;;;12.70;99.90;;;;;;4964668;28;20046;-78
2023/08/14 03:38:07;;;;;;;45.45;39.45;;;12.80;99.90;;;;;;4961310;28;20050;-78
2023/08/14 03:40:33;;;;;;;34.88;31.13;;;12.90;99.90;;;;;;4952253;28;20054;-78
2023/08/14 03:43:02;;;;;;;32.85;29.52;;;12.90;99.90;;;;;;4974027;28;20042;-78
2023/08/14 03:45:36;;;;;;;32.85;29.20;;;12.90;99.90;;;;;;4942184;29;20043;-78
2023/08/14 03:48:02;;;;;;;96.07;45.42;;;12.90;99.90;;;;;;4955200;28;20039;-78
2023/08/14 03:50:28;;;;;;;28.10;25.63;;;12.90;99.90;;;;;;4979784;28;20041;-78
2023/08/14 03:52:58;;;;;;;41.53;32.72;;;12.90;99.90;;;;;;4973382;28;20039;-78
2023/08/14 03:55:26;;;;;;;29.27;26.30;;;12.80;99.90;;;;;;4957779;28;20034;-78
2023/08/14 03:57:52;;;;;;;24.13;21.98;;;12.80;99.90;;;;;;4968941;28;20043;-78
2023/08/14 04:00:18;;;;;;;24.63;22.23;;;12.70;99.90;;;;;;4993230;28;20053;-78
2023/08/14 04:02:43;;;;;;;29.80;24.70;;;12.70;99.90;;;;;;4959598;28;20050;-78
2023/08/14 04:05:09;;;;;;;55.85;35.58;;;12.70;99.90;;;;;;4958625;28;20074;-78
2023/08/14 04:07:40;;;;;;;49.47;33.92;;;12.60;99.90;;;;;;4957024;28;20047;-78
2023/08/14 04:10:10;;;;;;;33.75;30.27;;;12.60;99.90;;;;;;4956555;28;20046;-78
2023/08/14 04:12:40;;;;;;;29.73;26.80;;;12.70;99.90;;;;;;4978982;28;20042;-78
2023/08/14 04:15:17;;;;;;;40.60;35.88;;;12.60;99.90;;;;;;4979191;28;20073;-78
2023/08/14 04:17:43;;;;;;;55.67;42.78;;;12.60;99.90;;;;;;4964159;28;20191;-78
2023/08/14 04:20:09;;;;;;;39.20;35.15;;;12.70;99.90;;;;;;4972042;28;20058;-78
2023/08/14 04:22:36;;;;;;;37.42;33.75;;;12.70;99.90;;;;;;4958611;28;20093;-78
2023/08/14 04:25:07;;;;;;;33.47;30.33;;;12.80;99.90;;;;;;4976561;28;20121;-78
2023/08/14 04:27:37;;;;;;;39.42;35.00;;;12.90;99.90;;;;;;4964204;28;20047;-78
2023/08/14 04:30:19;;;;;;;43.08;37.88;;;12.90;99.90;;;;;;4956352;28;20390;-78
2023/08/14 04:32:48;;;;;;;38.83;34.73;;;12.90;99.90;;;;;;4961000;28;20051;-78
2023/08/14 04:35:17;;;;;;;38.33;33.72;;;13.00;99.90;;;;;;4969808;28;20035;-78
2023/08/14 04:37:49;;;;;;;37.03;33.30;;;13.00;99.90;;;;;;4976173;28;20070;-78
2023/08/14 04:40:23;;;;;;;33.15;29.95;;;13.00;99.90;;;;;;4962017;28;20069;-78
2023/08/14 04:43:00;;;;;;;45.35;40.28;;;13.10;99.90;;;;;;4968426;28;20039;-78
2023/08/14 04:45:32;;;;;;;108.78;56.95;;;13.00;99.90;;;;;;4957390;28;20113;-78
2023/08/14 04:48:06;;;;;;;40.15;35.92;;;13.20;99.90;;;;;;4957492;28;20572;-78
2023/08/14 04:50:35;;;;;;;65.43;40.15;;;13.20;99.90;;;;;;4970864;28;20505;-78
2023/08/14 04:53:11;;;;;;;61.72;43.95;;;13.30;99.90;;;;;;4962181;28;20046;-78
2023/08/14 04:55:45;;;;;;;35.20;32.20;;;13.30;99.90;;;;;;4961094;28;20042;-78
2023/08/14 04:58:13;;;;;;;37.13;33.65;;;13.40;99.90;;;;;;4943428;28;20089;-78
2023/08/14 05:00:39;;;;;;;37.88;33.92;;;13.50;99.90;;;;;;4960773;28;20085;-78
2023/08/14 05:03:07;;;;;;;39.20;35.47;;;13.50;99.90;;;;;;4954324;28;20039;-78
2023/08/14 05:05:44;;;;;;;84.28;55.10;;;13.50;99.90;;;;;;4980431;28;20070;-78
2023/08/14 05:08:17;;;;;;;45.60;40.67;;;13.70;99.90;;;;;;4964515;28;20091;-78
2023/08/14 05:10:43;;;;;;;43.40;39.08;;;13.80;99.90;;;;;;4957481;28;20129;-79
2023/08/14 05:13:09;;;;;;;39.65;35.85;;;13.80;99.90;;;;;;4987922;28;20043;-77
2023/08/14 05:15:37;;;;;;;49.80;39.85;;;14.00;99.90;;;;;;4970333;28;20046;-79
2023/08/14 05:18:13;;;;;;;38.55;34.70;;;14.10;99.90;;;;;;4986629;28;20047;-79
2023/08/14 05:20:44;;;;;;;62.75;47.90;;;14.10;99.90;;;;;;4962898;28;20121;-79
2023/08/14 05:23:11;;;;;;;38.85;35.13;;;14.30;99.90;;;;;;4969288;28;20045;-78
2023/08/14 05:25:37;;;;;;;38.30;34.65;;;14.40;99.90;;;;;;4964089;28;20437;-78
2023/08/14 05:28:06;;;;;;;38.47;34.95;;;14.50;99.90;;;;;;4959542;28;20133;-77
2023/08/14 05:30:35;;;;;;;34.92;31.63;;;14.50;99.90;;;;;;4965563;28;20440;-77
2023/08/14 05:33:01;;;;;;;40.45;36.35;;;14.70;99.90;;;;;;4966998;28;20030;-79
2023/08/14 05:35:28;;;;;;;35.45;31.77;;;14.80;99.90;;;;;;4939601;28;20047;-77
2023/08/14 05:37:56;;;;;;;37.50;33.28;;;14.90;99.90;;;;;;4956871;28;20417;-77
2023/08/14 05:40:25;;;;;;;35.00;31.45;;;14.90;99.90;;;;;;4967455;28;20489;-77
2023/08/14 05:43:08;;;;;;;34.20;31.00;;;15.00;99.90;;;;;;4962898;28;20130;-77
2023/08/14 05:45:45;;;;;;;35.67;31.92;;;15.10;99.90;;;;;;4974864;28;20073;-77
2023/08/14 05:48:21;;;;;;;35.00;31.48;;;15.00;99.90;;;;;;4982725;28;20565;-77
2023/08/14 05:50:54;;;;;;;31.50;28.65;;;15.10;99.90;;;;;;4982766;28;20038;-77
2023/08/14 05:53:20;;;;;;;38.67;34.50;;;15.10;99.90;;;;;;4977959;28;20378;-77
2023/08/14 05:55:48;;;;;;;34.38;30.92;;;15.20;99.90;;;;;;4973938;28;20057;-76
2023/08/14 05:58:14;;;;;;;32.67;29.38;;;15.30;99.90;;;;;;4955372;28;20059;-77
2023/08/14 06:00:45;;;;;;;30.67;27.63;;;15.30;99.90;;;;;;4958688;28;20146;-76
2023/08/14 06:03:14;;;;;;;32.30;29.15;;;15.40;99.90;;;;;;4951433;28;20101;-78
2023/08/14 06:05:40;;;;;;;30.88;27.90;;;15.50;99.90;;;;;;4971914;28;20042;-78
2023/08/14 06:08:06;;;;;;;38.30;34.28;;;15.50;99.90;;;;;;4960351;28;20042;-78
2023/08/14 06:10:31;;;;;;;33.40;30.35;;;15.60;99.90;;;;;;4957115;28;20035;-78
2023/08/14 06:13:02;;;;;;;32.33;29.35;;;15.70;99.90;;;;;;4956913;28;20042;-79
2023/08/14 06:15:28;;;;;;;38.92;35.10;;;15.90;99.90;;;;;;4959545;28;20047;-77
2023/08/14 06:17:53;;;;;;;41.00;33.83;;;15.90;99.90;;;;;;4967968;28;20114;-77
2023/08/14 06:20:20;;;;;;;31.65;28.42;;;15.90;99.90;;;;;;4958583;28;20502;-78
2023/08/14 06:22:49;;;;;;;31.45;28.33;;;16.00;99.90;;;;;;4973101;28;20042;-77
2023/08/14 06:25:18;;;;;;;32.17;29.00;;;16.00;99.90;;;;;;4978993;28;20050;-78
2023/08/14 06:27:44;;;;;;;30.00;27.13;;;16.10;99.90;;;;;;4969991;28;20043;-78
2023/08/14 06:30:10;;;;;;;31.60;28.48;;;16.10;99.90;;;;;;4978097;28;20058;-78
2023/08/14 06:32:37;;;;;;;28.77;26.00;;;16.10;99.90;;;;;;4973012;28;20043;-78
2023/08/14 06:35:04;;;;;;;29.30;26.50;;;16.10;99.90;;;;;;4952032;28;20493;-78
2023/08/14 06:37:30;;;;;;;32.83;29.65;;;16.20;99.90;;;;;;4993996;28;20038;-78
2023/08/14 06:39:56;;;;;;;30.58;27.85;;;16.20;99.90;;;;;;4994249;28;20038;-78
2023/08/14 06:42:21;;;;;;;89.47;47.28;;;16.20;99.90;;;;;;4977330;28;20420;-78
2023/08/14 06:44:47;;;;;;;29.27;26.77;;;16.20;99.90;;;;;;4975096;28;20428;-78
2023/08/14 06:47:13;;;;;;;29.95;27.10;;;16.30;99.90;;;;;;4955367;28;20047;-77
2023/08/14 06:49:39;;;;;;;31.73;29.00;;;16.30;99.90;;;;;;4977616;28;20096;-78
2023/08/14 06:52:05;;;;;;;37.85;34.25;;;16.30;99.90;;;;;;4978035;28;20057;-78
2023/08/14 06:54:31;;;;;;;39.38;35.40;;;16.40;99.90;;;;;;4977314;28;20038;-78
2023/08/14 06:56:56;;;;;;;34.20;31.08;;;16.40;99.90;;;;;;4977406;28;20386;-78
2023/08/14 06:59:22;;;;;;;30.40;27.35;;;16.50;99.90;;;;;;4977100;28;20046;-78
2023/08/14 07:01:48;;;;;;;34.83;31.35;;;16.50;99.90;;;;;;4965856;28;20100;-78
2023/08/14 07:04:13;;;;;;;33.35;30.00;;;16.70;99.90;;;;;;4958970;28;20049;-77
2023/08/14 07:06:39;;;;;;;31.50;28.70;;;16.80;99.90;;;;;;4976955;28;20054;-78
2023/08/14 07:09:05;;;;;;;30.17;27.08;;;16.90;99.90;;;;;;4968130;28;20039;-78
2023/08/14 07:11:36;;;;;;;33.25;29.95;;;17.00;99.90;;;;;;4976412;28;20115;-78
2023/08/14 07:14:03;;;;;;;34.63;31.30;;;17.10;99.90;;;;;;4976993;28;20030;-78
2023/08/14 07:16:28;;;;;;;28.60;25.67;;;17.20;99.90;;;;;;4970917;28;20097;-78
2023/08/14 07:18:54;;;;;;;31.38;28.27;;;17.40;99.90;;;;;;4976741;28;20093;-78
2023/08/14 07:21:20;;;;;;;26.20;23.65;;;17.50;99.90;;;;;;4976703;28;20188;-78
2023/08/14 07:23:48;;;;;;;33.67;30.45;;;17.60;99.90;;;;;;4976931;28;20042;-78
2023/08/14 07:26:17;;;;;;;32.38;29.33;;;17.80;99.90;;;;;;4969861;28;20043;-78
2023/08/14 07:28:45;;;;;;;28.77;25.77;;;17.80;99.90;;;;;;4975432;28;20054;-78
2023/08/14 07:31:11;;;;;;;27.85;25.13;;;18.00;99.90;;;;;;4976532;28;20042;-78
2023/08/14 07:33:37;;;;;;;25.13;22.75;;;18.10;99.90;;;;;;4976191;28;20125;-78
2023/08/14 07:36:03;;;;;;;29.20;26.38;;;18.20;99.90;;;;;;4975599;28;20477;-78
2023/08/14 07:38:29;;;;;;;25.50;23.13;;;18.30;99.90;;;;;;4976011;28;20093;-78
2023/08/14 07:40:58;;;;;;;27.83;25.08;;;18.40;99.90;;;;;;4969027;28;20034;-78
2023/08/14 07:43:24;;;;;;;24.30;22.10;;;18.50;99.90;;;;;;4975750;28;20081;-79
2023/08/14 07:45:51;;;;;;;25.52;22.98;;;18.60;99.90;;;;;;4975621;28;20484;-78
2023/08/14 07:48:16;;;;;;;23.33;20.95;;;18.70;99.90;;;;;;4975514;28;20394;-78
2023/08/14 07:50:42;;;;;;;19.65;17.88;;;18.70;99.90;;;;;;4959672;28;20035;-78
2023/08/14 07:53:11;;;;;;;22.95;20.65;;;18.90;99.90;;;;;;4972761;28;20034;-77
2023/08/14 07:55:37;;;;;;;18.98;17.15;;;19.00;99.90;;;;;;4976043;28;20038;-78
2023/08/14 07:58:06;;;;;;;22.88;20.30;;;19.10;99.90;;;;;;4978747;28;20042;-77
2023/08/14 08:00:32;;;;;;;22.50;20.23;;;19.20;99.90;;;;;;4981225;28;20077;-77
2023/08/14 08:02:57;;;;;;;21.50;18.95;;;19.30;99.90;;;;;;4983410;28;20408;-77
2023/08/14 08:05:23;;;;;;;16.77;14.18;;;19.40;99.90;;;;;;4982922;28;20069;-79
2023/08/14 08:07:49;;;;;;;16.45;14.80;;;19.50;99.90;;;;;;4976458;28;20046;-77
2023/08/14 08:10:15;;;;;;;14.90;13.45;;;19.60;99.90;;;;;;4982574;28;20048;-77
2023/08/14 08:12:40;;;;;;;16.50;13.95;;;19.80;99.90;;;;;;4981998;28;20098;-77
2023/08/14 08:15:06;;;;;;;15.25;12.73;;;19.90;99.90;;;;;;4981398;28;20026;-77
2023/08/14 08:17:32;;;;;;;14.65;13.15;;;20.00;99.90;;;;;;4981724;28;20046;-77
2023/08/14 08:19:58;;;;;;;15.77;14.20;;;20.10;99.90;;;;;;4975510;28;20489;-77
2023/08/14 08:22:24;;;;;;;12.50;10.50;;;20.30;99.90;;;;;;4952523;28;20121;-79
2023/08/14 08:24:49;;;;;;;12.68;10.57;;;20.40;99.90;;;;;;4980985;28;20074;-76
2023/08/14 08:27:15;;;;;;;14.38;12.90;;;20.50;99.90;;;;;;4981831;28;20046;-77
2023/08/14 08:29:41;;;;;;;13.55;11.02;;;21.20;99.90;;;;;;4978446;28;20042;-77
2023/08/14 08:32:08;;;;;;;13.45;10.50;;;21.90;99.90;;;;;;4962630;28;20112;-77
2023/08/14 08:34:34;;;;;;;10.30;8.48;;;22.50;99.90;;;;;;4981493;28;20046;-77
2023/08/14 08:37:00;;;;;;;11.13;7.63;;;22.50;99.90;;;;;;4981653;28;20347;-77
2023/08/14 08:39:26;;;;;;;9.55;6.88;;;22.50;99.90;;;;;;4965929;28;20180;-77
2023/08/14 08:41:53;;;;;;;10.60;7.50;;;22.40;99.90;;;;;;4966033;28;20592;-77
2023/08/14 08:44:25;;;;;;;8.90;5.72;;;22.60;99.90;;;;;;4959040;28;20386;-78
2023/08/14 08:46:52;;;;;;;;;;;23.40;99.90;;;;;;4965293;28;20084;-78
2023/08/14 08:49:20;;;;;;;9.90;5.03;;;24.10;99.90;;;;;;4965511;28;19921;-77
2023/08/14 08:51:48;;;;;;;7.38;4.55;;;24.50;99.90;;;;;;4965275;28;20038;-77
2023/08/14 08:54:16;;;;;;;8.18;4.50;;;24.90;99.90;;;;;;4981739;28;20046;-78
2023/08/14 08:56:42;;;;;;;6.30;3.20;;;25.00;99.90;;;;;;4970415;28;20054;-77
2023/08/14 08:59:09;;;;;;;9.00;3.90;;;24.90;99.90;;;;;;4961483;28;20097;-78
2023/08/14 09:01:35;;;;;;;6.78;3.40;;;24.90;99.90;;;;;;4963810;28;20042;-79
2023/08/14 09:04:01;;;;;;;6.90;3.50;;;24.90;99.90;;;;;;4963868;28;20049;-78
2023/08/14 09:06:27;;;;;;;7.35;3.30;;;24.70;99.90;;;;;;4979428;28;20048;-78
2023/08/14 09:08:56;;;;;;;9.45;3.85;;;24.50;99.90;;;;;;4980647;28;20042;-79
2023/08/14 09:11:22;;;;;;;8.60;4.10;;;24.50;99.90;;;;;;4955331;28;20042;-77
2023/08/14 09:13:48;;;;;;;8.70;3.95;;;24.70;99.90;;;;;;4978025;28;20042;-77
2023/08/14 09:16:15;;;;;;;6.38;3.67;;;25.10;99.90;;;;;;4961950;28;20042;-78
2023/08/14 09:18:45;;;;;;;8.45;4.30;;;25.40;99.90;;;;;;4961516;28;20053;-78
2023/08/14 09:21:15;;;;;;;6.35;3.15;;;25.70;99.90;;;;;;4978056;28;20046;-78
2023/08/14 09:23:42;;;;;;;6.38;3.63;;;26.10;99.90;;;;;;4973595;28;20035;-78
2023/08/14 09:26:10;;;;;;;6.70;3.22;;;26.50;99.90;;;;;;4959047;28;20038;-78
2023/08/14 09:28:36;;;;;;;6.55;3.50;;;26.90;99.90;;;;;;4962130;28;20042;-78
2023/08/14 09:31:10;;;;;;;5.70;3.20;;;27.20;99.90;;;;;;4978589;28;20093;-78
2023/08/14 09:33:41;;;;;;;6.85;2.92;;;27.50;99.90;;;;;;4962098;28;20134;-81
2023/08/14 09:36:07;;;;;;;7.15;3.33;;;27.80;99.90;;;;;;4978139;28;20121;-78
2023/08/14 09:38:33;;;;;;;5.50;2.42;;;28.10;99.90;;;;;;4952307;28;20512;-78
2023/08/14 09:40:59;;;;;;;8.05;2.60;;;28.20;99.90;;;;;;4958114;28;20129;-78
2023/08/14 09:43:27;;;;;;;7.30;2.60;;;28.30;99.90;;;;;;4962155;28;20038;-79
2023/08/14 09:45:53;;;;;;;5.70;2.25;;;28.40;99.90;;;;;;4961367;28;20054;-79
2023/08/14 09:48:20;;;;;;;6.15;2.50;;;28.60;99.90;;;;;;4954213;28;20466;-78
2023/08/14 09:50:50;;;;;;;7.47;2.85;;;28.70;99.90;;;;;;4961384;28;20517;-78
2023/08/14 09:53:16;;;;;;;5.78;2.00;;;28.90;99.90;;;;;;4961367;28;20042;-78
2023/08/14 09:55:45;;;;;;;8.45;2.47;;;28.90;99.90;;;;;;4961173;28;20096;-78
2023/08/14 09:58:11;;;;;;;7.65;2.50;;;29.00;99.90;;;;;;4960788;28;20046;-78
2023/08/14 10:00:38;;;;;;;5.70;2.50;;;29.00;99.90;;;;;;4961237;28;20535;-79
2023/08/14 10:03:07;;;;;;;7.07;2.10;;;28.80;99.90;;;;;;4952329;28;20485;-78
2023/08/14 10:05:33;;;;;;;5.47;2.05;;;28.60;99.90;;;;;;4955020;28;20042;-80
2023/08/14 10:08:00;;;;;;;5.35;1.80;;;28.50;99.90;;;;;;4978499;28;20053;-78
2023/08/14 10:10:31;;;;;;;4.63;1.67;;;28.60;99.90;;;;;;4960067;28;20030;-78
2023/08/14 10:13:04;;;;;;;5.07;1.90;;;28.60;99.70;;;;;;4962892;28;20081;-78
2023/08/14 10:15:37;;;;;;;3.80;1.70;;;28.70;98.20;;;;;;4962259;28;20388;-78
2023/08/14 10:18:16;;;;;;;;;;;28.80;94.50;;;;;;4958044;28;20042;-79
2023/08/14 10:20:44;;;;;;;4.13;1.80;;;28.70;99.90;;;;;;4962626;28;20396;-79
2023/08/14 10:23:13;;;;;;;3.65;1.70;;;28.80;99.90;;;;;;4955346;28;20142;-78
2023/08/14 10:25:39;;;;;;;5.20;1.40;;;28.90;99.90;;;;;;4978848;28;20046;-78
2023/08/14 10:28:07;;;;;;;5.03;1.83;;;29.00;99.90;;;;;;4979397;28;20046;-79
2023/08/14 10:30:35;;;;;;;4.03;1.65;;;29.00;99.90;;;;;;4962897;28;20047;-78
2023/08/14 10:33:05;;;;;;;3.63;1.50;;;29.00;99.60;;;;;;4968570;28;20105;-78
2023/08/14 10:35:44;;;;;;;4.90;1.75;;;29.20;93.00;;;;;;4947725;28;20039;-78
2023/08/14 10:38:10;;;;;;;5.68;1.63;;;29.30;77.40;;;;;;4973726;28;20031;-79
2023/08/14 10:40:36;;;;;;;3.50;1.40;;;29.30;96.90;;;;;;4979596;28;20038;-79
2023/08/14 10:43:04;;;;;;;4.38;1.60;;;29.40;94.80;;;;;;4977294;28;20069;-80
2023/08/14 10:45:29;;;;;;;4.22;1.70;;;29.50;90.10;;;;;;4966570;28;20050;-78
2023/08/14 10:48:00;;;;;;;4.45;1.73;;;29.30;75.30;;;;;;4957085;28;20545;-78
2023/08/14 10:50:29;;;;;;;4.82;1.70;;;29.00;75.00;;;;;;4961956;28;20045;-79
2023/08/14 10:52:56;;;;;;;5.18;2.00;;;28.70;75.50;;;;;;4962591;28;20464;-79
2023/08/14 10:55:39;;;;;;;4.97;1.90;;;28.70;82.30;;;;;;4978444;28;20065;-80
2023/08/14 10:58:36;;;;;;;6.28;2.08;;;29.00;81.80;;;;;;4972300;28;20070;-78
2023/08/14 11:01:03;;;;;;;4.80;1.92;;;29.30;78.30;;;;;;4961864;28;20068;-78
2023/08/14 11:03:31;;;;;;;5.43;1.92;;;29.30;78.70;;;;;;4978459;28;20124;-78
2023/08/14 11:05:57;;;;;;;6.55;2.88;;;29.20;79.30;;;;;;4978089;28;20054;-77
2023/08/14 11:08:23;;;;;;;4.55;1.90;;;29.30;82.50;;;;;;4978813;28;20129;-78
2023/08/14 11:10:49;;;;;;;5.10;2.10;;;29.30;76.20;;;;;;4974366;28;20042;-78
2023/08/14 11:13:16;;;;;;;7.22;2.10;;;29.40;73.60;;;;;;4958117;28;20125;-78
2023/08/14 11:15:43;;;;;;;6.15;2.08;;;29.50;77.50;;;;;;4977613;28;20098;-78
2023/08/14 11:18:10;;;;;;;5.32;2.13;;;29.70;73.90;;;;;;4978678;28;20433;-79
2023/08/14 11:20:43;;;;;;;6.30;2.17;;;29.70;75.50;;;;;;4962216;28;20185;-79
2023/08/14 11:23:10;;;;;;;6.78;2.25;;;29.90;74.60;;;;;;4961967;28;20046;-78
2023/08/14 11:25:37;;;;;;;6.10;2.10;;;30.00;75.10;;;;;;4953376;28;20042;-79
2023/08/14 11:28:03;;;;;;;4.90;2.10;;;30.00;79.20;;;;;;4958729;28;20188;-79
2023/08/14 11:30:36;;;;;;;4.63;2.10;;;30.20;73.10;;;;;;4962190;28;20129;-80
2023/08/14 11:33:06;;;;;;;5.43;2.13;;;30.20;70.60;;;;;;4961640;28;20084;-79
2023/08/14 11:35:32;;;;;;;5.75;1.80;;;30.20;69.30;;;;;;4962369;28;20050;-78
2023/08/14 11:37:58;;;;;;;6.68;2.05;;;30.10;70.30;;;;;;4956325;28;20042;-78
2023/08/14 11:40:24;;;;;;;7.50;2.45;;;30.00;72.50;;;;;;4977601;28;20042;-78
2023/08/14 11:42:51;;;;;;;6.82;2.15;;;30.10;75.80;;;;;;4923142;28;1128388;-78
2023/08/14 11:45:17;;;;;;;5.70;2.13;;;29.90;72.60;;;;;;4953887;28;20050;-78
2023/08/14 11:47:47;;;;;;;4.88;2.10;;;29.70;73.80;;;;;;4961660;28;20192;-78
2023/08/14 11:50:14;;;;;;;7.95;2.13;;;29.50;74.70;;;;;;4961928;28;20046;-78
2023/08/14 11:52:42;;;;;;;4.75;1.92;;;29.30;75.10;;;;;;4978028;28;20405;-80
2023/08/14 11:55:09;;;;;;;5.60;2.55;;;28.90;79.20;;;;;;4970207;28;20114;-80
2023/08/14 11:57:36;;;;;;;6.70;2.30;;;28.60;86.00;;;;;;4962270;28;20401;-78
2023/08/14 12:00:10;;;;;;;5.00;2.40;;;28.50;96.30;;;;;;4977623;28;20065;-78
2023/08/14 12:02:36;;;;;;;5.38;2.03;;;28.90;94.20;;;;;;4978436;28;20452;-78
2023/08/14 12:05:02;;;;;;;4.30;1.70;;;29.30;89.90;;;;;;4962416;28;20053;-78
2023/08/14 12:07:29;;;;;;;6.22;2.10;;;29.50;90.30;;;;;;4957722;28;20413;-78
2023/08/14 12:09:55;;;;;;;5.20;2.50;;;29.60;76.20;;;;;;4957267;28;20042;-79
2023/08/14 12:12:21;;;;;;;5.15;2.25;;;29.10;73.40;;;;;;4959822;28;20449;-79
2023/08/14 12:14:48;;;;;;;6.10;2.38;;;28.90;78.00;;;;;;4975039;28;20097;-78
2023/08/14 12:17:16;;;;;;;6.88;2.30;;;29.20;79.70;;;;;;4975043;28;20045;-79
2023/08/14 12:19:47;;;;;;;4.32;2.10;;;29.60;78.80;;;;;;4949367;28;20031;-78
2023/08/14 12:22:13;;;;;;;6.22;2.60;;;29.90;83.10;;;;;;4945321;28;20035;-78
2023/08/14 12:24:39;;;;;;;5.53;2.10;;;29.80;73.70;;;;;;4959198;28;20058;-80
2023/08/14 12:27:25;;;;;;;5.13;2.20;;;29.50;71.70;;;;;;4955392;28;20050;-78
2023/08/14 12:29:52;;;;;;;5.97;2.17;;;29.10;73.70;;;;;;4950753;28;20042;-77
2023/08/14 12:32:19;;;;;;;4.93;2.47;;;28.60;84.50;;;;;;4959387;28;20042;-78
2023/08/14 12:34:45;;;;;;;3.60;1.90;;;28.70;95.00;;;;;;4959739;28;20038;-79
2023/08/14 12:37:12;;;;;;;5.63;2.20;;;29.30;83.50;;;;;;4976055;28;20084;-80